sensor_id;sensor_type;location;lat;lon;timestamp;temperature;humidity
21271;DHT22;10795;50.796;3.860;2022-08-03T00:01:35;20.60;99.90
21271;DHT22;10795;50.796;3.860;2022-08-03T00:04:01;20.60;99.90
21271;DHT22;10795;50.796;3.860;2022-08-03T00:06:27;20.60;99.90
21271;DHT22;10795;50.796;3.860;2022-08-03T00:08:53;20.50;99.90
21271;DHT22;10795;50.796;3.860;2022-08-03T00:11:19;20.40;99.90
21271;DHT22;10795;50.796;3.860;2022-08-03T00:13:45;20.50;99.90
21271;DHT22;10795;50.796;3.860;2022-08-03T00:16:10;20.60;99.90
21271;DHT22;10795;50.796;3.860;2022-08-03T00:18:38;20.50;99.90
21271;DHT22;10795;50.796;3.860;2022-08-03T00:21:04;20.40;99.90
21271;DHT22;10795;50.796;3.860;2022-08-03T00:23:30;20.30;99.90
21271;DHT22;10795;50.796;3.860;2022-08-03T00:25:56;20.10;99.90
21271;DHT22;10795;50.796;3.860;2022-08-03T00:28:22;19.70;99.90
21271;DHT22;10795;50.796;3.860;2022-08-03T00:30:48;19.60;99.90
21271;DHT22;10795;50.796;3.860;2022-08-03T00:33:14;19.60;99.90
21271;DHT22;10795;50.796;3.860;2022-08-03T00:35:40;19.40;99.90
21271;DHT22;10795;50.796;3.860;2022-08-03T00:38:06;19.40;99.90
21271;DHT22;10795;50.796;3.860;2022-08-03T00:40:32;19.50;99.90
21271;DHT22;10795;50.796;3.860;2022-08-03T00:43:01;19.60;99.90
21271;DHT22;10795;50.796;3.860;2022-08-03T00:45:30;19.70;99.90
21271;DHT22;10795;50.796;3.860;2022-08-03T00:47:56;19.60;99.90
21271;DHT22;10795;50.796;3.860;2022-08-03T00:50:24;19.50;99.90
21271;DHT22;10795;50.796;3.860;2022-08-03T00:52:55;19.50;99.90
21271;DHT22;10795;50.796;3.860;2022-08-03T00:55:22;19.50;99.90
21271;DHT22;10795;50.796;3.860;2022-08-03T00:57:47;19.50;99.90
21271;DHT22;10795;50.796;3.860;2022-08-03T01:00:19;19.40;99.90
21271;DHT22;10795;50.796;3.860;2022-08-03T01:02:45;19.40;99.90
21271;DHT22;10795;50.796;3.860;2022-08-03T01:05:11;19.50;99.90
21271;DHT22;10795;50.796;3.860;2022-08-03T01:08:00;19.50;99.90
21271;DHT22;10795;50.796;3.860;2022-08-03T01:13:30;19.40;99.90
21271;DHT22;10795;50.796;3.860;2022-08-03T01:16:05;19.20;99.90
21271;DHT22;10795;50.796;3.860;2022-08-03T01:18:44;19.10;99.90
21271;DHT22;10795;50.796;3.860;2022-08-03T01:21:31;19.10;99.90
21271;DHT22;10795;50.796;3.860;2022-08-03T01:24:28;19.00;99.90
21271;DHT22;10795;50.796;3.860;2022-08-03T01:27:08;18.80;99.90
21271;DHT22;10795;50.796;3.860;2022-08-03T01:30:04;18.80;99.90
21271;DHT22;10795;50.796;3.860;2022-08-03T01:35:15;19.00;99.90
21271;DHT22;10795;50.796;3.860;2022-08-03T01:37:56;19.00;99.90
21271;DHT22;10795;50.796;3.860;2022-08-03T01:40:24;19.10;99.90
21271;DHT22;10795;50.796;3.860;2022-08-03T01:42:53;19.10;99.90
21271;DHT22;10795;50.796;3.860;2022-08-03T01:45:21;19.10;99.90
21271;DHT22;10795;50.796;3.860;2022-08-03T01:47:48;19.30;99.90
21271;DHT22;10795;50.796;3.860;2022-08-03T01:50:18;19.10;99.90
21271;DHT22;10795;50.796;3.860;2022-08-03T01:52:45;19.30;99.90
21271;DHT22;10795;50.796;3.860;2022-08-03T01:55:12;19.20;99.90
21271;DHT22;10795;50.796;3.860;2022-08-03T01:57:42;18.90;99.90
21271;DHT22;10795;50.796;3.860;2022-08-03T02:00:09;18.70;99.90
21271;DHT22;10795;50.796;3.860;2022-08-03T02:02:38;18.70;99.90
21271;DHT22;10795;50.796;3.860;2022-08-03T02:05:06;18.70;99.90
21271;DHT22;10795;50.796;3.860;2022-08-03T02:07:33;18.60;99.90
21271;DHT22;10795;50.796;3.860;2022-08-03T02:10:02;18.50;99.90
21271;DHT22;10795;50.796;3.860;2022-08-03T02:12:30;18.70;99.90
21271;DHT22;10795;50.796;3.860;2022-08-03T02:14:58;18.80;99.90
21271;DHT22;10795;50.796;3.860;2022-08-03T02:17:25;18.70;99.90
21271;DHT22;10795;50.796;3.860;2022-08-03T02:19:53;18.70;99.90
21271;DHT22;10795;50.796;3.860;2022-08-03T02:22:22;18.70;99.90
21271;DHT22;10795;50.796;3.860;2022-08-03T02:24:49;18.60;99.90
21271;DHT22;10795;50.796;3.860;2022-08-03T02:27:24;18.50;99.90
21271;DHT22;10795;50.796;3.860;2022-08-03T02:30:02;18.40;99.90
21271;DHT22;10795;50.796;3.860;2022-08-03T02:32:33;18.50;99.90
21271;DHT22;10795;50.796;3.860;2022-08-03T02:35:03;18.60;99.90
21271;DHT22;10795;50.796;3.860;2022-08-03T02:37:34;18.50;99.90
21271;DHT22;10795;50.796;3.860;2022-08-03T02:40:04;18.20;99.90
21271;DHT22;10795;50.796;3.860;2022-08-03T02:42:35;18.20;99.90
21271;DHT22;10795;50.796;3.860;2022-08-03T02:45:05;18.20;99.90
21271;DHT22;10795;50.796;3.860;2022-08-03T02:47:34;18.30;99.90
21271;DHT22;10795;50.796;3.860;2022-08-03T02:50:02;18.30;99.90
21271;DHT22;10795;50.796;3.860;2022-08-03T02:52:29;18.00;99.90
21271;DHT22;10795;50.796;3.860;2022-08-03T02:54:59;18.00;99.90
21271;DHT22;10795;50.796;3.860;2022-08-03T02:57:27;18.10;99.90
21271;DHT22;10795;50.796;3.860;2022-08-03T02:59:54;18.10;99.90
21271;DHT22;10795;50.796;3.860;2022-08-03T03:02:23;18.10;99.90
21271;DHT22;10795;50.796;3.860;2022-08-03T03:04:51;18.10;99.90
21271;DHT22;10795;50.796;3.860;2022-08-03T03:07:17;18.00;99.90
21271;DHT22;10795;50.796;3.860;2022-08-03T03:09:44;17.80;99.90
21271;DHT22;10795;50.796;3.860;2022-08-03T03:12:12;17.80;99.90
21271;DHT22;10795;50.796;3.860;2022-08-03T03:14:38;17.90;99.90
21271;DHT22;10795;50.796;3.860;2022-08-03T03:17:09;17.80;99.90
21271;DHT22;10795;50.796;3.860;2022-08-03T03:19:37;17.70;99.90
21271;DHT22;10795;50.796;3.860;2022-08-03T03:22:04;17.80;99.90
21271;DHT22;10795;50.796;3.860;2022-08-03T03:24:32;17.90;99.90
21271;DHT22;10795;50.796;3.860;2022-08-03T03:26:59;17.80;99.90
21271;DHT22;10795;50.796;3.860;2022-08-03T03:29:25;17.80;99.90
21271;DHT22;10795;50.796;3.860;2022-08-03T03:31:51;17.90;99.90
21271;DHT22;10795;50.796;3.860;2022-08-03T03:34:17;18.00;99.90
21271;DHT22;10795;50.796;3.860;2022-08-03T03:36:43;17.90;99.90
21271;DHT22;10795;50.796;3.860;2022-08-03T03:39:09;17.90;99.90
21271;DHT22;10795;50.796;3.860;2022-08-03T03:41:35;17.90;99.90
21271;DHT22;10795;50.796;3.860;2022-08-03T03:44:01;17.80;99.90
21271;DHT22;10795;50.796;3.860;2022-08-03T03:46:27;17.80;99.90
21271;DHT22;10795;50.796;3.860;2022-08-03T03:48:53;17.90;99.90
21271;DHT22;10795;50.796;3.860;2022-08-03T03:51:19;17.90;99.90
21271;DHT22;10795;50.796;3.860;2022-08-03T03:53:58;17.80;99.90
21271;DHT22;10795;50.796;3.860;2022-08-03T03:56:24;17.70;99.90
21271;DHT22;10795;50.796;3.860;2022-08-03T03:58:51;17.70;99.90
21271;DHT22;10795;50.796;3.860;2022-08-03T04:01:16;17.70;99.90
21271;DHT22;10795;50.796;3.860;2022-08-03T04:03:42;17.70;99.90
21271;DHT22;10795;50.796;3.860;2022-08-03T04:06:08;17.60;99.90
21271;DHT22;10795;50.796;3.860;2022-08-03T04:08:53;17.70;99.90
21271;DHT22;10795;50.796;3.860;2022-08-03T04:12:00;17.60;99.90
21271;DHT22;10795;50.796;3.860;2022-08-03T04:14:27;17.60;99.90
21271;DHT22;10795;50.796;3.860;2022-08-03T04:17:05;17.60;99.90
21271;DHT22;10795;50.796;3.860;2022-08-03T04:19:37;17.60;99.90
21271;DHT22;10795;50.796;3.860;2022-08-03T04:22:08;17.60;99.90
21271;DHT22;10795;50.796;3.860;2022-08-03T04:24:44;17.50;99.90
21271;DHT22;10795;50.796;3.860;2022-08-03T04:27:12;17.60;99.90
21271;DHT22;10795;50.796;3.860;2022-08-03T04:29:43;17.60;99.90
21271;DHT22;10795;50.796;3.860;2022-08-03T04:32:10;17.60;99.90
21271;DHT22;10795;50.796;3.860;2022-08-03T04:34:36;17.50;99.90
21271;DHT22;10795;50.796;3.860;2022-08-03T04:37:08;17.60;99.90
21271;DHT22;10795;50.796;3.860;2022-08-03T04:39:36;17.70;99.90
21271;DHT22;10795;50.796;3.860;2022-08-03T04:42:06;17.70;99.90
21271;DHT22;10795;50.796;3.860;2022-08-03T04:44:36;17.60;99.90
21271;DHT22;10795;50.796;3.860;2022-08-03T04:47:03;17.50;99.90
21271;DHT22;10795;50.796;3.860;2022-08-03T04:49:29;17.50;99.90
21271;DHT22;10795;50.796;3.860;2022-08-03T04:51:55;17.40;99.90
21271;DHT22;10795;50.796;3.860;2022-08-03T04:54:21;17.70;99.90
21271;DHT22;10795;50.796;3.860;2022-08-03T04:56:47;18.30;99.90
21271;DHT22;10795;50.796;3.860;2022-08-03T04:59:13;18.70;99.90
21271;DHT22;10795;50.796;3.860;2022-08-03T05:01:39;19.00;99.90
21271;DHT22;10795;50.796;3.860;2022-08-03T05:04:05;19.00;99.90
21271;DHT22;10795;50.796;3.860;2022-08-03T05:06:31;19.30;99.90
21271;DHT22;10795;50.796;3.860;2022-08-03T05:08:57;19.00;99.90
21271;DHT22;10795;50.796;3.860;2022-08-03T05:11:22;18.90;99.90
21271;DHT22;10795;50.796;3.860;2022-08-03T05:13:48;18.80;99.90
21271;DHT22;10795;50.796;3.860;2022-08-03T05:16:15;18.60;99.90
21271;DHT22;10795;50.796;3.860;2022-08-03T05:18:41;19.00;99.90
21271;DHT22;10795;50.796;3.860;2022-08-03T05:21:08;19.10;99.90
21271;DHT22;10795;50.796;3.860;2022-08-03T05:23:35;19.70;99.90
21271;DHT22;10795;50.796;3.860;2022-08-03T05:26:00;19.90;99.90
21271;DHT22;10795;50.796;3.860;2022-08-03T05:28:26;19.90;99.90
21271;DHT22;10795;50.796;3.860;2022-08-03T05:30:52;20.10;99.90
21271;DHT22;10795;50.796;3.860;2022-08-03T05:33:18;20.60;99.90
21271;DHT22;10795;50.796;3.860;2022-08-03T05:35:43;20.20;99.90
21271;DHT22;10795;50.796;3.860;2022-08-03T05:38:10;20.30;99.90
21271;DHT22;10795;50.796;3.860;2022-08-03T05:40:35;20.50;99.90
21271;DHT22;10795;50.796;3.860;2022-08-03T05:43:01;20.90;99.90
21271;DHT22;10795;50.796;3.860;2022-08-03T05:45:27;20.50;99.90
21271;DHT22;10795;50.796;3.860;2022-08-03T05:47:53;21.00;99.90
21271;DHT22;10795;50.796;3.860;2022-08-03T05:50:19;20.80;99.90
21271;DHT22;10795;50.796;3.860;2022-08-03T05:52:45;21.20;99.90
21271;DHT22;10795;50.796;3.860;2022-08-03T05:55:12;21.70;99.90
21271;DHT22;10795;50.796;3.860;2022-08-03T05:57:38;21.70;99.90
21271;DHT22;10795;50.796;3.860;2022-08-03T06:00:06;21.30;99.90
21271;DHT22;10795;50.796;3.860;2022-08-03T06:02:37;21.20;99.90
21271;DHT22;10795;50.796;3.860;2022-08-03T06:05:03;21.80;99.90
21271;DHT22;10795;50.796;3.860;2022-08-03T06:07:29;21.80;99.90
21271;DHT22;10795;50.796;3.860;2022-08-03T06:09:55;22.30;99.90
21271;DHT22;10795;50.796;3.860;2022-08-03T06:12:21;22.30;99.90
21271;DHT22;10795;50.796;3.860;2022-08-03T06:14:46;22.70;99.90
21271;DHT22;10795;50.796;3.860;2022-08-03T06:17:12;22.90;99.90
21271;DHT22;10795;50.796;3.860;2022-08-03T06:19:39;23.10;99.90
21271;DHT22;10795;50.796;3.860;2022-08-03T06:22:05;23.40;99.90
21271;DHT22;10795;50.796;3.860;2022-08-03T06:24:31;23.30;99.90
21271;DHT22;10795;50.796;3.860;2022-08-03T06:26:57;23.30;99.90
21271;DHT22;10795;50.796;3.860;2022-08-03T06:29:23;23.50;99.90
21271;DHT22;10795;50.796;3.860;2022-08-03T06:31:49;24.00;99.90
21271;DHT22;10795;50.796;3.860;2022-08-03T06:34:15;24.40;99.90
21271;DHT22;10795;50.796;3.860;2022-08-03T06:36:40;24.50;99.90
21271;DHT22;10795;50.796;3.860;2022-08-03T06:39:06;24.60;99.90
21271;DHT22;10795;50.796;3.860;2022-08-03T06:41:32;24.80;99.90
21271;DHT22;10795;50.796;3.860;2022-08-03T06:43:58;24.60;99.90
21271;DHT22;10795;50.796;3.860;2022-08-03T06:46:24;24.60;99.90
21271;DHT22;10795;50.796;3.860;2022-08-03T06:48:50;23.90;99.90
21271;DHT22;10795;50.796;3.860;2022-08-03T06:51:16;24.00;99.90
21271;DHT22;10795;50.796;3.860;2022-08-03T06:53:42;24.60;99.90
21271;DHT22;10795;50.796;3.860;2022-08-03T06:56:08;24.80;99.90
21271;DHT22;10795;50.796;3.860;2022-08-03T06:58:34;25.10;99.90
21271;DHT22;10795;50.796;3.860;2022-08-03T07:01:00;25.10;99.90
21271;DHT22;10795;50.796;3.860;2022-08-03T07:03:26;25.20;99.90
21271;DHT22;10795;50.796;3.860;2022-08-03T07:05:52;25.30;99.90
21271;DHT22;10795;50.796;3.860;2022-08-03T07:08:18;25.60;99.90
21271;DHT22;10795;50.796;3.860;2022-08-03T07:10:44;26.00;99.90
21271;DHT22;10795;50.796;3.860;2022-08-03T07:13:10;26.50;99.90
21271;DHT22;10795;50.796;3.860;2022-08-03T07:15:36;26.10;99.90
21271;DHT22;10795;50.796;3.860;2022-08-03T07:18:02;26.60;99.90
21271;DHT22;10795;50.796;3.860;2022-08-03T07:20:28;26.60;99.90
21271;DHT22;10795;50.796;3.860;2022-08-03T07:22:54;26.40;99.90
21271;DHT22;10795;50.796;3.860;2022-08-03T07:25:20;26.50;99.90
21271;DHT22;10795;50.796;3.860;2022-08-03T07:27:46;26.00;99.90
21271;DHT22;10795;50.796;3.860;2022-08-03T07:30:13;25.90;99.90
21271;DHT22;10795;50.796;3.860;2022-08-03T07:32:39;26.70;99.90
21271;DHT22;10795;50.796;3.860;2022-08-03T07:35:05;27.10;99.90
21271;DHT22;10795;50.796;3.860;2022-08-03T07:37:32;27.00;99.90
21271;DHT22;10795;50.796;3.860;2022-08-03T07:39:58;26.60;99.90
21271;DHT22;10795;50.796;3.860;2022-08-03T07:42:26;26.70;99.90
21271;DHT22;10795;50.796;3.860;2022-08-03T07:44:52;26.00;99.90
21271;DHT22;10795;50.796;3.860;2022-08-03T07:47:19;26.30;99.90
21271;DHT22;10795;50.796;3.860;2022-08-03T07:49:46;26.30;99.90
21271;DHT22;10795;50.796;3.860;2022-08-03T07:52:12;26.80;99.90
21271;DHT22;10795;50.796;3.860;2022-08-03T07:54:56;26.80;99.90
21271;DHT22;10795;50.796;3.860;2022-08-03T07:57:22;27.50;99.90
21271;DHT22;10795;50.796;3.860;2022-08-03T07:59:48;27.40;99.90
21271;DHT22;10795;50.796;3.860;2022-08-03T08:02:13;27.40;99.90
21271;DHT22;10795;50.796;3.860;2022-08-03T08:04:39;27.70;99.90
21271;DHT22;10795;50.796;3.860;2022-08-03T08:07:06;27.80;99.90
21271;DHT22;10795;50.796;3.860;2022-08-03T08:09:31;27.40;99.90
21271;DHT22;10795;50.796;3.860;2022-08-03T08:11:57;27.30;99.90
21271;DHT22;10795;50.796;3.860;2022-08-03T08:14:23;28.80;99.90
21271;DHT22;10795;50.796;3.860;2022-08-03T08:16:49;29.30;99.90
21271;DHT22;10795;50.796;3.860;2022-08-03T08:19:14;29.70;99.90
21271;DHT22;10795;50.796;3.860;2022-08-03T08:21:42;29.50;99.90
21271;DHT22;10795;50.796;3.860;2022-08-03T08:24:08;29.30;99.90
21271;DHT22;10795;50.796;3.860;2022-08-03T08:26:34;29.80;99.90
21271;DHT22;10795;50.796;3.860;2022-08-03T08:29:00;29.90;99.90
21271;DHT22;10795;50.796;3.860;2022-08-03T08:31:25;29.50;99.90
21271;DHT22;10795;50.796;3.860;2022-08-03T08:33:51;30.40;99.90
21271;DHT22;10795;50.796;3.860;2022-08-03T08:36:17;30.20;99.90
21271;DHT22;10795;50.796;3.860;2022-08-03T08:38:43;30.30;99.90
21271;DHT22;10795;50.796;3.860;2022-08-03T08:41:13;30.00;99.90
21271;DHT22;10795;50.796;3.860;2022-08-03T08:43:40;30.30;99.90
21271;DHT22;10795;50.796;3.860;2022-08-03T08:46:10;30.60;99.90
21271;DHT22;10795;50.796;3.860;2022-08-03T08:48:39;30.10;99.90
21271;DHT22;10795;50.796;3.860;2022-08-03T08:51:07;30.50;99.90
21271;DHT22;10795;50.796;3.860;2022-08-03T08:53:36;30.80;99.90
21271;DHT22;10795;50.796;3.860;2022-08-03T08:56:03;31.50;99.90
21271;DHT22;10795;50.796;3.860;2022-08-03T08:58:36;30.40;99.90
21271;DHT22;10795;50.796;3.860;2022-08-03T09:01:02;31.10;99.90
21271;DHT22;10795;50.796;3.860;2022-08-03T09:03:28;30.70;99.90
21271;DHT22;10795;50.796;3.860;2022-08-03T09:05:54;30.00;99.90
21271;DHT22;10795;50.796;3.860;2022-08-03T09:08:20;30.70;99.90
21271;DHT22;10795;50.796;3.860;2022-08-03T09:10:47;30.40;99.90
21271;DHT22;10795;50.796;3.860;2022-08-03T09:13:13;30.40;99.90
21271;DHT22;10795;50.796;3.860;2022-08-03T09:15:39;30.90;99.90
21271;DHT22;10795;50.796;3.860;2022-08-03T09:18:06;31.60;99.90
21271;DHT22;10795;50.796;3.860;2022-08-03T09:20:34;31.70;99.90
21271;DHT22;10795;50.796;3.860;2022-08-03T09:23:06;30.80;99.90
21271;DHT22;10795;50.796;3.860;2022-08-03T09:25:42;32.10;99.90
21271;DHT22;10795;50.796;3.860;2022-08-03T09:30:35;30.50;99.90
21271;DHT22;10795;50.796;3.860;2022-08-03T09:33:03;30.80;99.90
21271;DHT22;10795;50.796;3.860;2022-08-03T09:35:29;32.10;99.90
21271;DHT22;10795;50.796;3.860;2022-08-03T09:40:34;32.10;99.90
21271;DHT22;10795;50.796;3.860;2022-08-03T09:43:00;31.60;99.90
21271;DHT22;10795;50.796;3.860;2022-08-03T09:45:27;32.40;99.90
21271;DHT22;10795;50.796;3.860;2022-08-03T09:47:54;32.10;99.90
21271;DHT22;10795;50.796;3.860;2022-08-03T09:50:21;32.40;99.90
21271;DHT22;10795;50.796;3.860;2022-08-03T09:52:47;32.10;99.90
21271;DHT22;10795;50.796;3.860;2022-08-03T09:55:16;31.90;99.90
21271;DHT22;10795;50.796;3.860;2022-08-03T09:57:43;32.40;99.90
21271;DHT22;10795;50.796;3.860;2022-08-03T10:00:15;33.20;99.90
21271;DHT22;10795;50.796;3.860;2022-08-03T10:02:43;33.60;99.90
21271;DHT22;10795;50.796;3.860;2022-08-03T10:05:12;33.70;99.90
21271;DHT22;10795;50.796;3.860;2022-08-03T10:07:47;34.00;99.90
21271;DHT22;10795;50.796;3.860;2022-08-03T10:10:14;33.50;99.90
21271;DHT22;10795;50.796;3.860;2022-08-03T10:12:41;33.20;99.90
21271;DHT22;10795;50.796;3.860;2022-08-03T10:15:08;33.50;99.90
21271;DHT22;10795;50.796;3.860;2022-08-03T10:17:35;33.20;99.90
21271;DHT22;10795;50.796;3.860;2022-08-03T10:20:02;33.10;99.90
21271;DHT22;10795;50.796;3.860;2022-08-03T10:22:32;32.60;99.90
21271;DHT22;10795;50.796;3.860;2022-08-03T10:25:06;33.90;99.90
21271;DHT22;10795;50.796;3.860;2022-08-03T10:27:39;33.80;99.90
21271;DHT22;10795;50.796;3.860;2022-08-03T10:30:10;34.10;99.90
21271;DHT22;10795;50.796;3.860;2022-08-03T10:32:53;33.90;99.90
21271;DHT22;10795;50.796;3.860;2022-08-03T10:35:23;32.70;99.90
21271;DHT22;10795;50.796;3.860;2022-08-03T10:37:59;32.90;99.90
21271;DHT22;10795;50.796;3.860;2022-08-03T10:40:29;33.10;99.90
21271;DHT22;10795;50.796;3.860;2022-08-03T10:42:59;33.70;99.90
21271;DHT22;10795;50.796;3.860;2022-08-03T10:45:27;33.40;99.90
21271;DHT22;10795;50.796;3.860;2022-08-03T10:47:56;34.10;99.90
21271;DHT22;10795;50.796;3.860;2022-08-03T10:50:24;34.50;99.90
21271;DHT22;10795;50.796;3.860;2022-08-03T11:01:00;34.20;99.90
21271;DHT22;10795;50.796;3.860;2022-08-03T11:03:26;35.50;99.90
21271;DHT22;10795;50.796;3.860;2022-08-03T11:05:53;36.00;99.90
21271;DHT22;10795;50.796;3.860;2022-08-03T11:08:38;35.50;99.90
21271;DHT22;10795;50.796;3.860;2022-08-03T11:11:24;35.20;99.90
21271;DHT22;10795;50.796;3.860;2022-08-03T11:13:56;35.90;99.90
21271;DHT22;10795;50.796;3.860;2022-08-03T11:16:23;35.40;99.90
21271;DHT22;10795;50.796;3.860;2022-08-03T11:19:04;35.40;99.90
21271;DHT22;10795;50.796;3.860;2022-08-03T11:30:02;34.70;99.90
21271;DHT22;10795;50.796;3.860;2022-08-03T11:40:47;35.30;99.90
21271;DHT22;10795;50.796;3.860;2022-08-03T11:46:04;35.90;99.90
21271;DHT22;10795;50.796;3.860;2022-08-03T11:48:38;35.30;99.90
21271;DHT22;10795;50.796;3.860;2022-08-03T11:51:19;34.60;99.90
21271;DHT22;10795;50.796;3.860;2022-08-03T11:53:46;34.60;99.90
21271;DHT22;10795;50.796;3.860;2022-08-03T11:56:12;34.60;99.90
21271;DHT22;10795;50.796;3.860;2022-08-03T11:58:48;35.60;99.90
21271;DHT22;10795;50.796;3.860;2022-08-03T12:01:15;35.20;99.90
21271;DHT22;10795;50.796;3.860;2022-08-03T12:03:44;34.60;99.90
21271;DHT22;10795;50.796;3.860;2022-08-03T12:06:11;33.90;99.90
21271;DHT22;10795;50.796;3.860;2022-08-03T12:08:38;34.10;99.90
21271;DHT22;10795;50.796;3.860;2022-08-03T12:11:06;35.00;99.90
21271;DHT22;10795;50.796;3.860;2022-08-03T12:13:41;35.40;99.90
21271;DHT22;10795;50.796;3.860;2022-08-03T12:16:07;34.60;99.90
21271;DHT22;10795;50.796;3.860;2022-08-03T12:18:34;34.70;99.90
21271;DHT22;10795;50.796;3.860;2022-08-03T12:21:06;34.10;99.90
21271;DHT22;10795;50.796;3.860;2022-08-03T12:23:32;33.90;99.90
21271;DHT22;10795;50.796;3.860;2022-08-03T12:26:07;34.60;99.90
21271;DHT22;10795;50.796;3.860;2022-08-03T12:28:33;35.60;99.90
21271;DHT22;10795;50.796;3.860;2022-08-03T12:31:05;35.50;99.90
21271;DHT22;10795;50.796;3.860;2022-08-03T12:33:52;34.90;99.90
21271;DHT22;10795;50.796;3.860;2022-08-03T12:36:18;35.00;99.90
21271;DHT22;10795;50.796;3.860;2022-08-03T12:38:54;36.00;99.90
21271;DHT22;10795;50.796;3.860;2022-08-03T12:41:31;35.40;99.90
21271;DHT22;10795;50.796;3.860;2022-08-03T12:43:58;35.70;99.90
21271;DHT22;10795;50.796;3.860;2022-08-03T12:49:08;35.40;99.90
21271;DHT22;10795;50.796;3.860;2022-08-03T12:54:07;35.00;99.90
21271;DHT22;10795;50.796;3.860;2022-08-03T12:56:33;34.60;99.90
21271;DHT22;10795;50.796;3.860;2022-08-03T12:59:15;36.10;99.90
21271;DHT22;10795;50.796;3.860;2022-08-03T13:01:45;35.90;99.90
21271;DHT22;10795;50.796;3.860;2022-08-03T13:04:11;35.30;99.90
21271;DHT22;10795;50.796;3.860;2022-08-03T13:06:37;35.00;99.90
21271;DHT22;10795;50.796;3.860;2022-08-03T13:09:05;35.70;99.90
21271;DHT22;10795;50.796;3.860;2022-08-03T13:11:31;36.00;99.90
21271;DHT22;10795;50.796;3.860;2022-08-03T13:13:57;36.20;99.90
21271;DHT22;10795;50.796;3.860;2022-08-03T13:16:23;35.40;99.90
21271;DHT22;10795;50.796;3.860;2022-08-03T13:18:49;34.40;99.90
21271;DHT22;10795;50.796;3.860;2022-08-03T13:21:18;33.90;99.90
21271;DHT22;10795;50.796;3.860;2022-08-03T13:23:44;34.70;99.90
21271;DHT22;10795;50.796;3.860;2022-08-03T13:26:10;34.60;99.90
21271;DHT22;10795;50.796;3.860;2022-08-03T13:28:39;35.20;99.90
21271;DHT22;10795;50.796;3.860;2022-08-03T13:31:05;35.40;99.90
21271;DHT22;10795;50.796;3.860;2022-08-03T13:33:31;35.70;99.90
21271;DHT22;10795;50.796;3.860;2022-08-03T13:35:58;36.50;99.90
21271;DHT22;10795;50.796;3.860;2022-08-03T13:38:23;35.90;99.90
21271;DHT22;10795;50.796;3.860;2022-08-03T13:40:51;35.80;99.90
21271;DHT22;10795;50.796;3.860;2022-08-03T13:43:18;35.70;99.90
21271;DHT22;10795;50.796;3.860;2022-08-03T13:45:44;35.70;99.90
21271;DHT22;10795;50.796;3.860;2022-08-03T13:48:10;35.40;99.90
21271;DHT22;10795;50.796;3.860;2022-08-03T13:50:36;35.70;99.90
21271;DHT22;10795;50.796;3.860;2022-08-03T13:53:02;35.40;99.90
21271;DHT22;10795;50.796;3.860;2022-08-03T13:55:28;34.80;99.90
21271;DHT22;10795;50.796;3.860;2022-08-03T13:57:54;35.30;99.90
21271;DHT22;10795;50.796;3.860;2022-08-03T14:00:19;34.50;99.90
21271;DHT22;10795;50.796;3.860;2022-08-03T14:02:50;35.20;99.90
21271;DHT22;10795;50.796;3.860;2022-08-03T14:05:16;35.60;99.90
21271;DHT22;10795;50.796;3.860;2022-08-03T14:07:42;35.50;99.90
21271;DHT22;10795;50.796;3.860;2022-08-03T14:10:08;35.80;99.90
21271;DHT22;10795;50.796;3.860;2022-08-03T14:12:34;35.60;99.90
21271;DHT22;10795;50.796;3.860;2022-08-03T14:14:59;35.00;99.90
21271;DHT22;10795;50.796;3.860;2022-08-03T14:17:25;35.00;99.90
21271;DHT22;10795;50.796;3.860;2022-08-03T14:19:51;34.60;99.90
21271;DHT22;10795;50.796;3.860;2022-08-03T14:22:17;34.60;99.90
21271;DHT22;10795;50.796;3.860;2022-08-03T14:24:42;35.00;99.90
21271;DHT22;10795;50.796;3.860;2022-08-03T14:27:08;35.70;99.90
21271;DHT22;10795;50.796;3.860;2022-08-03T14:29:34;35.20;99.90
21271;DHT22;10795;50.796;3.860;2022-08-03T14:31:59;35.10;99.90
21271;DHT22;10795;50.796;3.860;2022-08-03T14:34:25;35.10;99.90
21271;DHT22;10795;50.796;3.860;2022-08-03T14:36:51;34.60;99.90
21271;DHT22;10795;50.796;3.860;2022-08-03T14:39:17;34.40;99.90
21271;DHT22;10795;50.796;3.860;2022-08-03T14:41:42;34.20;99.90
21271;DHT22;10795;50.796;3.860;2022-08-03T14:44:08;34.40;99.90
21271;DHT22;10795;50.796;3.860;2022-08-03T14:46:34;34.40;99.90
21271;DHT22;10795;50.796;3.860;2022-08-03T14:49:00;34.40;99.90
21271;DHT22;10795;50.796;3.860;2022-08-03T14:51:25;34.60;99.90
21271;DHT22;10795;50.796;3.860;2022-08-03T14:53:51;34.60;99.90
21271;DHT22;10795;50.796;3.860;2022-08-03T14:56:17;34.80;99.90
21271;DHT22;10795;50.796;3.860;2022-08-03T14:58:43;35.00;99.90
21271;DHT22;10795;50.796;3.860;2022-08-03T15:01:09;34.70;99.90
21271;DHT22;10795;50.796;3.860;2022-08-03T15:03:34;34.70;99.90
21271;DHT22;10795;50.796;3.860;2022-08-03T15:06:00;34.60;99.90
21271;DHT22;10795;50.796;3.860;2022-08-03T15:08:26;34.80;99.90
21271;DHT22;10795;50.796;3.860;2022-08-03T15:10:53;34.60;99.90
21271;DHT22;10795;50.796;3.860;2022-08-03T15:13:19;34.50;99.90
21271;DHT22;10795;50.796;3.860;2022-08-03T15:15:46;33.90;99.90
21271;DHT22;10795;50.796;3.860;2022-08-03T15:18:12;34.10;99.90
21271;DHT22;10795;50.796;3.860;2022-08-03T15:20:38;34.30;99.90
21271;DHT22;10795;50.796;3.860;2022-08-03T15:23:04;33.70;99.90
21271;DHT22;10795;50.796;3.860;2022-08-03T15:25:30;34.00;99.90
21271;DHT22;10795;50.796;3.860;2022-08-03T15:27:56;34.10;99.90
21271;DHT22;10795;50.796;3.860;2022-08-03T15:30:22;34.50;99.90
21271;DHT22;10795;50.796;3.860;2022-08-03T15:32:47;34.60;99.90
21271;DHT22;10795;50.796;3.860;2022-08-03T15:35:13;33.80;99.90
21271;DHT22;10795;50.796;3.860;2022-08-03T15:37:39;32.90;99.90
21271;DHT22;10795;50.796;3.860;2022-08-03T15:40:05;33.40;99.90
21271;DHT22;10795;50.796;3.860;2022-08-03T15:42:32;34.20;99.90
21271;DHT22;10795;50.796;3.860;2022-08-03T15:44:58;34.40;99.90
21271;DHT22;10795;50.796;3.860;2022-08-03T15:47:24;34.50;99.90
21271;DHT22;10795;50.796;3.860;2022-08-03T15:49:50;34.60;99.90
21271;DHT22;10795;50.796;3.860;2022-08-03T15:52:15;34.40;99.90
21271;DHT22;10795;50.796;3.860;2022-08-03T15:54:41;34.70;99.90
21271;DHT22;10795;50.796;3.860;2022-08-03T15:57:07;34.50;99.90
21271;DHT22;10795;50.796;3.860;2022-08-03T15:59:33;34.40;99.90
21271;DHT22;10795;50.796;3.860;2022-08-03T16:01:59;34.60;99.90
21271;DHT22;10795;50.796;3.860;2022-08-03T16:04:24;34.60;99.90
21271;DHT22;10795;50.796;3.860;2022-08-03T16:06:50;34.60;99.90
21271;DHT22;10795;50.796;3.860;2022-08-03T16:09:16;34.20;99.90
21271;DHT22;10795;50.796;3.860;2022-08-03T16:11:42;34.30;99.90
21271;DHT22;10795;50.796;3.860;2022-08-03T16:14:08;34.00;99.90
21271;DHT22;10795;50.796;3.860;2022-08-03T16:16:34;34.10;99.90
21271;DHT22;10795;50.796;3.860;2022-08-03T16:19:04;34.30;99.90